Terminal Aerodrome Forecast
Issued by NWS

Home | Current Version | Previous Version | Text Only | Print | Product List | Glossary On
Versions: 1 2 3 4 5 6 7 8 9 10 11 12 13 14 15 16
000
FTUS43 KEAX 240500
TAFSTJ
TAF
KSTJ 240521Z 2406/2506 14011KT P6SM VCSH OVC100
     FM241100 17012KT 5SM TSRA OVC030CB
     FM241600 33015KT P6SM -SHRA BKN030 OVC050
     FM242000 33009KT P6SM SCT030=

USA.gov is the U.S. government's official web portal to all federal, state and local government web resources and services.